Time;durP1;ratioP1;P1;durP2;ratioP2;P2;SDS_P1;SDS_P2;PMS_P1;PMS_P2;Temp;Humidity;BMP_temperature;BMP_pressure;BME280_temperature;BME280_humidity;BME280_pressure;Samples;Min_cycle;Max_cycle;Signal;HPM_P1;HPM_P2
2023/01/13 10:54:54;;;;;;;24.08;12.98;;;;;;;6.94;100.00;100504.28;5106631;27;20392;-49
2023/01/13 10:57:22;;;;;;;30.17;13.48;;;;;;;6.95;100.00;100494.94;5106649;28;20031;-50
2023/01/13 10:59:49;;;;;;;24.25;11.73;;;;;;;7.04;100.00;100500.59;5106692;28;20059;-50
2023/01/13 11:02:15;;;;;;;22.90;11.98;;;;;;;7.11;100.00;100500.25;5106621;28;20107;-48
2023/01/13 11:04:59;;;;;;;28.88;12.43;;;;;;;7.13;100.00;100509.84;5117266;28;20616;-48
2023/01/13 11:07:29;;;;;;;25.88;12.32;;;;;;;7.11;100.00;100514.84;5127400;27;20168;-49
2023/01/13 11:10:23;;;;;;;26.10;12.43;;;;;;;7.18;100.00;100525.50;5127469;27;20066;-50
2023/01/13 11:13:29;;;;;;;23.45;11.70;;;;;;;7.28;100.00;100516.31;5119031;27;20039;-49
2023/01/13 11:16:04;;;;;;;26.02;10.85;;;;;;;7.27;100.00;100520.19;5126405;27;20043;-51
2023/01/13 11:19:01;;;;;;;26.00;11.80;;;;;;;7.36;100.00;100507.41;5127096;27;20112;-48
2023/01/13 11:22:14;;;;;;;23.30;11.07;;;;;;;7.29;100.00;100513.28;5127109;27;20027;-51
2023/01/13 11:24:55;;;;;;;24.38;11.30;;;;;;;7.29;100.00;100524.28;5026394;28;20400;-51
2023/01/13 11:27:35;;;;;;;24.30;10.52;;;;;;;7.36;100.00;100512.13;5117983;27;20494;-52
2023/01/13 11:30:42;;;;;;;27.90;11.70;;;;;;;7.45;100.00;100522.19;5124808;28;20042;-48
2023/01/13 11:33:13;;;;;;;25.98;11.23;;;;;;;7.45;100.00;100508.41;5124026;27;20111;-49
2023/01/13 11:36:17;;;;;;;23.92;11.40;;;;;;;7.49;100.00;100509.47;5117291;27;20020;-48
2023/01/13 11:38:52;;;;;;;32.10;12.27;;;;;;;7.40;100.00;100529.66;5105506;28;20143;-51
2023/01/13 11:42:19;;;;;;;27.45;11.95;;;;;;;7.37;100.00;100528.31;5105855;28;20030;-51
2023/01/13 11:44:48;;;;;;;25.63;11.00;;;;;;;7.47;100.00;100521.88;5071515;28;20071;-48
2023/01/13 11:47:19;;;;;;;24.92;9.60;;;;;;;7.57;100.00;100530.00;5105668;28;20031;-50
2023/01/13 11:49:47;;;;;;;23.80;10.55;;;;;;;7.65;97.53;100528.56;5104060;28;20500;-51
2023/01/13 11:52:22;;;;;;;23.42;10.45;;;;;;;7.65;97.79;100545.88;5105940;28;20032;-51
2023/01/13 11:54:50;;;;;;;29.25;12.50;;;;;;;7.66;97.68;100546.72;5097455;28;20107;-52
2023/01/13 11:57:30;;;;;;;27.15;11.35;;;;;;;7.70;97.58;100557.97;5104769;28;20032;-51
2023/01/13 12:00:19;;;;;;;27.05;12.68;;;;;;;7.76;97.81;100556.78;5104880;28;20032;-52
2023/01/13 12:03:00;;;;;;;27.08;11.95;;;;;;;7.79;98.39;100565.25;5104347;28;20112;-50
2023/01/13 12:05:36;;;;;;;24.83;11.80;;;;;;;7.72;97.95;100564.81;5094154;28;20507;-51
2023/01/13 12:08:08;;;;;;;26.13;10.73;;;;;;;7.76;96.79;100557.59;5091444;28;20034;-51
2023/01/13 12:11:21;;;;;;;21.50;11.15;;;;;;;7.75;98.23;100557.88;5091418;28;20039;-47
2023/01/13 12:14:11;;;;;;;24.33;10.73;;;;;;;7.78;97.75;100579.34;5054458;28;20044;-48
2023/01/13 12:16:47;;;;;;;22.77;10.75;;;;;;;7.70;96.29;100580.78;5091685;28;20114;-52
2023/01/13 12:19:29;;;;;;;27.15;11.05;;;;;;;7.73;96.12;100579.41;5091498;28;20028;-49
2023/01/13 12:22:19;;;;;;;25.48;10.85;;;;;;;7.68;96.85;100582.22;5090281;28;20066;-49
2023/01/13 12:25:13;;;;;;;20.88;10.95;;;;;;;7.83;96.06;100570.19;5091622;28;20032;-47
2023/01/13 12:27:58;;;;;;;23.75;10.80;;;;;;;7.68;96.13;100590.47;5091680;28;20093;-48
2023/01/13 12:30:35;;;;;;;26.15;10.73;;;;;;;7.67;95.41;100591.56;5091738;28;20048;-50
2023/01/13 12:33:24;;;;;;;22.33;10.30;;;;;;;7.59;96.90;100580.09;5091399;28;20028;-49
2023/01/13 12:36:06;;;;;;;22.27;10.20;;;;;;;7.64;95.88;100576.47;5091166;28;20460;-51
2023/01/13 12:38:41;;;;;;;23.40;10.23;;;;;;;7.65;95.48;100578.91;5091532;28;20074;-50
2023/01/13 12:41:19;;;;;;;27.20;11.38;;;;;;;7.61;95.99;100591.66;5083970;28;20032;-50
2023/01/13 12:46:31;;;;;;;22.35;10.23;;;;;;;7.72;94.46;100594.28;5090826;28;20096;-51
2023/01/13 12:49:03;;;;;;;24.42;10.32;;;;;;;7.71;94.33;100593.44;5088954;28;20040;-50
2023/01/13 12:51:32;;;;;;;25.38;11.80;;;;;;;7.62;95.59;100601.56;5090199;28;20024;-47
2023/01/13 12:54:00;;;;;;;21.05;10.55;;;;;;;7.65;95.02;100608.41;5090337;28;20059;-53
2023/01/13 12:56:37;;;;;;;24.02;10.38;;;;;;;7.65;94.49;100600.94;5088966;28;20043;-50
2023/01/13 12:59:18;;;;;;;23.83;11.13;;;;;;;7.84;93.78;100616.72;5088766;28;20024;-52
2023/01/13 13:01:46;;;;;;;21.33;10.57;;;;;;;7.80;93.04;100613.72;5088772;28;20032;-51
2023/01/13 13:04:33;;;;;;;26.40;11.18;;;;;;;7.73;92.55;100616.00;5089528;28;20031;-49
2023/01/13 13:07:09;;;;;;;19.83;10.50;;;;;;;7.87;93.06;100623.59;5078102;28;20517;-50
2023/01/13 13:09:42;;;;;;;23.45;10.27;;;;;;;7.90;91.42;100626.56;5088622;28;20395;-54
2023/01/13 13:15:41;;;;;;;19.80;9.88;;;;;;;7.87;91.92;100642.88;5005038;28;20045;-48
2023/01/13 13:18:16;;;;;;;20.55;9.88;;;;;;;7.94;91.77;100646.09;5005199;28;20026;-51
2023/01/13 13:21:01;;;;;;;21.25;9.95;;;;;;;7.93;92.65;100642.53;5065753;28;20488;-51
2023/01/13 13:23:42;;;;;;;19.98;10.10;;;;;;;7.90;90.87;100648.59;5090629;28;20052;-49
2023/01/13 13:26:19;;;;;;;19.17;10.15;;;;;;;7.97;91.94;100651.00;5090597;28;20035;-48
2023/01/13 13:29:08;;;;;;;19.45;9.88;;;;;;;8.02;91.82;100669.41;5090076;28;20137;-49
2023/01/13 13:31:50;;;;;;;23.33;10.00;;;;;;;7.86;91.06;100666.81;5090523;28;20028;-50
2023/01/13 13:34:36;;;;;;;23.38;10.32;;;;;;;7.86;92.08;100660.50;5090330;28;20491;-50
2023/01/13 13:37:19;;;;;;;22.58;10.43;;;;;;;7.80;92.82;100657.78;5090202;28;20028;-49
2023/01/13 13:48:36;;;;;;;23.48;10.20;;;;;;;7.91;90.67;100675.03;5088087;28;20047;-48
2023/01/13 13:51:20;;;;;;;22.80;10.20;;;;;;;7.74;91.80;100686.50;5089962;28;20032;-48
2023/01/13 13:53:45;;;;;;;20.10;10.27;;;;;;;7.75;91.97;100695.56;5081698;28;20059;-51
2023/01/13 13:56:24;;;;;;;20.38;9.68;;;;;;;7.88;90.63;100700.41;5089716;28;20035;-48
2023/01/13 13:58:51;;;;;;;19.13;9.90;;;;;;;7.78;91.39;100711.53;5089721;28;20406;-50
2023/01/13 14:01:31;;;;;;;27.45;10.02;;;;;;;7.85;91.57;100725.75;5089824;28;20031;-48
2023/01/13 14:04:19;;;;;;;19.65;10.10;;;;;;;7.89;90.98;100723.25;5088453;28;20028;-51
2023/01/13 14:07:19;;;;;;;20.30;10.05;;;;;;;7.91;91.94;100743.91;5089332;28;20142;-52
2023/01/13 14:09:48;;;;;;;21.52;10.07;;;;;;;7.81;91.39;100735.75;5089447;28;20028;-48
2023/01/13 14:12:20;;;;;;;22.08;9.52;;;;;;;7.88;90.49;100732.66;5089426;28;20028;-49
2023/01/13 14:14:47;;;;;;;19.02;9.95;;;;;;;7.99;89.98;100739.69;5089237;28;20315;-50
2023/01/13 14:17:24;;;;;;;23.02;9.90;;;;;;;8.09;90.53;100766.31;5089546;28;20024;-49
2023/01/13 14:20:04;;;;;;;21.98;10.23;;;;;;;8.03;90.25;100748.22;5089312;28;20024;-47
2023/01/13 14:22:30;;;;;;;22.08;9.68;;;;;;;7.97;90.02;100753.75;5089144;28;20465;-48
2023/01/13 14:24:56;;;;;;;22.38;10.27;;;;;;;7.97;90.22;100758.44;5088948;28;20453;-50
2023/01/13 14:27:26;;;;;;;19.63;9.80;;;;;;;7.95;90.91;100763.44;5088650;28;20020;-48
2023/01/13 14:29:57;;;;;;;22.30;9.45;;;;;;;7.93;90.91;100765.63;5089197;28;20032;-49
2023/01/13 14:32:31;;;;;;;22.13;9.68;;;;;;;7.89;91.52;100773.66;5081420;28;20028;-47
2023/01/13 14:34:56;;;;;;;;;;;;;;;7.89;91.69;100776.41;5089419;28;20093;-49
2023/01/13 14:37:38;;;;;;;19.05;9.43;;;;;;;7.89;91.75;100789.34;5088579;28;19919;-48
2023/01/13 14:40:04;;;;;;;24.13;10.15;;;;;;;7.76;92.24;100786.19;5087735;28;20032;-49
2023/01/13 14:42:30;;;;;;;22.30;10.15;;;;;;;7.75;92.20;100786.44;5086970;28;20034;-51
2023/01/13 14:44:56;;;;;;;21.30;10.10;;;;;;;7.83;90.84;100794.13;5087795;28;20040;-49
2023/01/13 14:47:26;;;;;;;23.73;10.52;;;;;;;7.82;91.56;100792.47;5087728;28;20024;-49
2023/01/13 14:49:57;;;;;;;21.58;9.93;;;;;;;7.84;91.72;100803.19;5086520;28;20028;-48
2023/01/13 14:52:24;;;;;;;23.90;10.25;;;;;;;7.83;91.45;100805.13;5089101;28;20044;-52
2023/01/13 14:55:10;;;;;;;24.23;10.15;;;;;;;7.73;92.31;100805.22;5089175;28;20052;-51
2023/01/13 14:57:38;;;;;;;24.42;9.77;;;;;;;7.73;92.98;100810.72;5072841;28;20279;-50
2023/01/13 15:00:13;;;;;;;22.13;10.68;;;;;;;7.78;93.37;100810.66;5085578;28;20410;-52
2023/01/13 15:02:38;;;;;;;24.35;10.85;;;;;;;7.69;93.17;100815.97;5085184;28;20165;-49
2023/01/13 15:05:15;;;;;;;25.25;11.93;;;;;;;7.78;92.87;100819.75;5085447;28;20106;-52
2023/01/13 15:07:52;;;;;;;25.05;9.98;;;;;;;7.76;92.94;100829.41;5083781;28;20032;-50
2023/01/13 15:10:19;;;;;;;22.08;10.45;;;;;;;7.63;92.37;100820.69;5085760;28;20355;-50
2023/01/13 15:12:48;;;;;;;23.30;11.13;;;;;;;7.69;92.95;100826.16;5085064;28;20372;-50
2023/01/13 15:15:26;;;;;;;21.67;10.25;;;;;;;7.87;92.44;100835.66;5086548;28;20040;-49
2023/01/13 15:17:52;;;;;;;22.75;10.38;;;;;;;7.85;91.57;100841.44;5087915;28;20028;-51
2023/01/13 15:20:19;;;;;;;25.42;10.45;;;;;;;7.75;92.69;100850.63;5087205;28;20085;-52
2023/01/13 15:22:46;;;;;;;26.58;10.75;;;;;;;7.65;94.02;100858.97;5088587;28;20116;-51
2023/01/13 15:25:12;;;;;;;25.02;10.40;;;;;;;7.63;93.95;100866.66;5088586;28;20525;-46
2023/01/13 15:27:38;;;;;;;27.33;10.85;;;;;;;7.63;93.67;100866.66;5088661;28;20099;-51
2023/01/13 15:30:18;;;;;;;22.50;9.77;;;;;;;7.64;93.52;100868.31;5088513;28;20115;-52
2023/01/13 15:32:43;;;;;;;22.98;9.85;;;;;;;7.65;93.69;100878.22;5088642;28;20444;-53
2023/01/13 15:35:12;;;;;;;19.73;9.80;;;;;;;7.72;93.84;100891.69;5088522;28;20099;-51
2023/01/13 15:37:37;;;;;;;26.95;10.80;;;;;;;7.72;93.63;100887.00;5088532;28;20016;-48
2023/01/13 15:40:03;;;;;;;23.05;11.10;;;;;;;7.69;93.95;100893.09;5089685;28;20454;-50
2023/01/13 15:47:58;;;;;;;21.27;10.65;;;;;;;7.56;94.31;100890.94;5090835;28;20043;-48
2023/01/13 15:50:24;;;;;;;23.35;11.00;;;;;;;7.52;95.42;100901.72;5092109;28;20062;-52
2023/01/13 15:52:49;;;;;;;27.23;11.50;;;;;;;7.47;95.57;100913.56;5091852;28;20108;-49
2023/01/13 15:55:15;;;;;;;21.92;10.65;;;;;;;7.51;94.65;100910.28;5092139;28;20047;-48
2023/01/13 15:57:46;;;;;;;29.10;11.90;;;;;;;7.46;94.69;100909.19;5090800;28;20032;-48
2023/01/13 16:00:15;;;;;;;28.52;11.38;;;;;;;7.41;95.86;100898.22;5092378;28;20020;-50
2023/01/13 16:02:43;;;;;;;22.67;11.20;;;;;;;7.44;94.78;100913.31;5092186;28;20027;-51
2023/01/13 16:05:09;;;;;;;25.33;11.05;;;;;;;7.39;95.54;100907.81;5092068;28;20105;-48
2023/01/13 16:07:34;;;;;;;25.27;10.85;;;;;;;7.39;95.80;100907.81;5092304;28;20149;-50
2023/01/13 16:10:02;;;;;;;21.83;10.75;;;;;;;7.61;93.64;100918.44;5092304;28;20031;-48
2023/01/13 16:12:27;;;;;;;25.77;10.77;;;;;;;7.58;93.17;100913.53;5092174;28;20046;-48
2023/01/13 16:14:52;;;;;;;23.38;10.52;;;;;;;7.52;93.97;100925.66;5084571;28;20439;-50
2023/01/13 16:17:22;;;;;;;24.27;11.15;;;;;;;7.59;93.29;100939.94;5092657;28;20059;-51
2023/01/13 16:19:48;;;;;;;22.30;10.48;;;;;;;7.57;93.21;100947.66;5090811;28;20028;-49
2023/01/13 16:22:14;;;;;;;21.13;10.35;;;;;;;7.54;94.09;100943.56;5075468;28;20024;-51
2023/01/13 16:24:40;;;;;;;23.48;10.70;;;;;;;7.61;93.14;100946.81;5071274;28;20028;-54
2023/01/13 16:27:14;;;;;;;21.25;10.40;;;;;;;7.59;93.50;100962.78;5071551;28;20033;-47
2023/01/13 16:29:40;;;;;;;23.42;11.32;;;;;;;7.70;91.94;100968.25;5068647;28;20098;-51
2023/01/13 16:32:06;;;;;;;24.10;11.57;;;;;;;7.61;92.22;100957.81;5070016;28;20441;-50
2023/01/13 16:34:31;;;;;;;24.77;10.95;;;;;;;7.58;92.91;100966.66;5070018;28;20150;-52
2023/01/13 16:36:57;;;;;;;18.05;10.40;;;;;;;7.68;91.50;100974.03;5070079;28;20048;-52
2023/01/13 16:39:23;;;;;;;23.45;10.82;;;;;;;7.68;91.57;100978.72;5069752;28;20531;-52
2023/01/13 16:41:48;;;;;;;23.98;11.43;;;;;;;7.69;91.03;100983.97;5068112;28;20128;-53
2023/01/13 16:44:14;;;;;;;24.50;11.32;;;;;;;7.64;92.10;100975.69;5069129;28;20099;-48
2023/01/13 16:46:39;;;;;;;21.25;10.30;;;;;;;7.67;92.16;100983.41;5068665;28;20036;-48
2023/01/13 16:49:05;;;;;;;21.85;10.90;;;;;;;7.62;91.97;100988.94;5065514;28;20139;-50
2023/01/13 16:51:32;;;;;;;25.00;11.27;;;;;;;7.62;91.55;100981.50;5068252;28;20041;-47
2023/01/13 16:53:58;;;;;;;27.42;11.20;;;;;;;7.67;91.63;100985.31;5066932;28;20052;-51
2023/01/13 16:56:32;;;;;;;23.52;11.85;;;;;;;7.59;92.37;100984.00;5067534;28;20031;-51
2023/01/13 16:59:02;;;;;;;24.35;10.93;;;;;;;7.57;92.65;100999.97;5069327;28;20083;-51
2023/01/13 17:01:29;;;;;;;26.02;10.95;;;;;;;7.56;93.26;100993.63;5069123;28;20040;-51
2023/01/13 17:03:56;;;;;;;24.25;10.82;;;;;;;7.68;91.56;101000.75;5069498;28;20079;-52
2023/01/13 17:06:26;;;;;;;24.67;10.90;;;;;;;7.68;92.45;101014.50;5068968;28;20483;-47
2023/01/13 17:08:56;;;;;;;24.88;10.43;;;;;;;7.58;92.09;100999.69;5069282;28;20032;-49
2023/01/13 17:11:21;;;;;;;20.50;10.48;;;;;;;7.60;92.11;101013.19;5068469;28;20036;-53
2023/01/13 17:13:47;;;;;;;23.17;10.82;;;;;;;7.69;90.79;101013.41;5068759;28;20028;-49
2023/01/13 17:16:23;;;;;;;24.77;10.95;;;;;;;7.69;91.83;101010.66;5069013;28;20368;-50
2023/01/13 17:18:48;;;;;;;23.77;10.95;;;;;;;7.54;92.07;100995.88;5061552;28;20032;-50
2023/01/13 17:21:15;;;;;;;24.45;10.68;;;;;;;7.57;91.93;101016.50;5083646;28;20031;-49
2023/01/13 17:23:40;;;;;;;21.63;10.95;;;;;;;7.52;92.27;101017.34;5088499;28;20058;-53
2023/01/13 17:26:06;;;;;;;23.38;10.95;;;;;;;7.53;91.95;101013.47;5088990;28;20028;-52
2023/01/13 17:28:32;;;;;;;20.38;10.40;;;;;;;7.60;91.15;101025.00;5087150;28;20545;-51
2023/01/13 17:30:57;;;;;;;21.20;10.02;;;;;;;7.52;91.59;101036.63;5088726;28;20093;-52
2023/01/13 17:33:22;;;;;;;23.05;10.63;;;;;;;7.52;91.67;101039.38;5088241;28;20032;-51
2023/01/13 17:35:48;;;;;;;21.88;11.15;;;;;;;7.54;91.46;101042.66;5088583;28;20081;-51
2023/01/13 17:38:13;;;;;;;21.52;10.98;;;;;;;7.59;90.98;101041.81;5087214;28;20020;-52
2023/01/13 17:40:38;;;;;;;22.55;10.70;;;;;;;7.51;91.38;101045.16;5086842;28;20450;-50
2023/01/13 17:43:03;;;;;;;18.95;10.10;;;;;;;7.53;90.75;101045.69;5088357;28;20467;-49
2023/01/13 17:45:29;;;;;;;20.50;10.38;;;;;;;7.50;90.98;101047.06;5088149;28;20032;-51
2023/01/13 17:47:58;;;;;;;21.58;10.23;;;;;;;7.48;91.44;101060.28;5086202;28;20040;-51
2023/01/13 17:50:26;;;;;;;24.48;11.57;;;;;;;7.44;91.88;101054.53;5086369;28;20031;-49
2023/01/13 17:52:52;;;;;;;21.10;11.25;;;;;;;7.49;91.55;101060.03;5087696;28;20466;-51
2023/01/13 17:55:17;;;;;;;22.90;11.30;;;;;;;7.53;92.02;101053.94;5088283;28;20032;-50
2023/01/13 17:57:42;;;;;;;22.27;10.80;;;;;;;7.62;91.53;101066.03;5088467;28;20062;-53
2023/01/13 18:00:10;;;;;;;23.80;11.00;;;;;;;7.54;91.96;101059.19;5088585;28;20115;-51
2023/01/13 18:02:36;;;;;;;19.92;10.20;;;;;;;7.52;91.41;101064.13;5087513;28;20044;-52
2023/01/13 18:05:01;;;;;;;22.15;10.90;;;;;;;7.49;92.06;101068.28;5087998;28;20539;-49
2023/01/13 18:07:26;;;;;;;24.75;11.23;;;;;;;7.39;92.50;101071.06;5087951;28;20117;-50
2023/01/13 18:09:51;;;;;;;23.13;10.68;;;;;;;7.39;92.04;101078.47;5087446;28;20040;-49
2023/01/13 18:12:17;;;;;;;22.30;10.43;;;;;;;7.42;91.78;101083.44;5085981;28;20127;-48
2023/01/13 18:14:42;;;;;;;22.10;11.18;;;;;;;7.35;91.96;101089.22;5082970;28;20027;-48
2023/01/13 18:17:07;;;;;;;20.42;9.98;;;;;;;7.37;91.32;101089.78;5087805;28;20024;-51
2023/01/13 18:27:52;;;;;;;21.65;11.73;;;;;;;7.29;95.60;101102.16;5063516;28;20434;-48
2023/01/13 18:30:18;;;;;;;24.88;11.77;;;;;;;7.28;96.00;101118.97;5087958;28;20193;-48
2023/01/13 18:32:43;;;;;;;23.45;11.40;;;;;;;7.22;97.33;101122.84;5094614;28;20059;-50
2023/01/13 18:35:09;;;;;;;22.88;11.73;;;;;;;7.17;97.67;101110.72;5068312;28;20024;-49
2023/01/13 18:37:37;;;;;;;21.70;11.13;;;;;;;7.18;98.17;101122.53;5067429;28;20035;-51
2023/01/13 18:40:04;;;;;;;22.42;11.90;;;;;;;7.06;99.34;101122.81;5068094;28;20036;-53
2023/01/13 18:45:14;;;;;;;26.17;12.10;;;;;;;6.98;98.90;101118.72;5080137;28;20501;-51
2023/01/13 18:47:41;;;;;;;25.30;12.32;;;;;;;6.86;99.55;101121.72;5065576;28;20028;-52
2023/01/13 18:50:07;;;;;;;25.15;12.32;;;;;;;6.76;99.92;101118.16;5065751;28;20111;-50
2023/01/13 18:52:33;;;;;;;22.58;12.85;;;;;;;6.77;99.69;101130.81;5076486;28;20036;-50
2023/01/13 18:54:58;;;;;;;20.95;12.10;;;;;;;6.77;98.29;101128.88;5072036;28;20036;-50
2023/01/13 18:57:23;;;;;;;23.95;11.82;;;;;;;6.79;97.44;101134.94;5086794;28;20072;-52
2023/01/13 18:59:49;;;;;;;23.83;12.52;;;;;;;6.75;97.72;101141.25;5087363;28;20517;-50
2023/01/13 19:02:17;;;;;;;28.80;12.48;;;;;;;6.86;96.62;101138.22;5087465;28;20475;-51
2023/01/13 19:04:42;;;;;;;20.13;10.70;;;;;;;6.88;96.37;101148.97;5086917;28;20028;-51
2023/01/13 19:07:11;;;;;;;21.95;11.60;;;;;;;6.89;96.16;101149.78;5087584;28;20075;-50
2023/01/13 19:09:37;;;;;;;19.65;11.13;;;;;;;6.84;96.08;101148.69;5080445;28;20091;-48
2023/01/13 19:12:04;;;;;;;19.05;11.02;;;;;;;6.69;96.65;101145.91;5087206;28;20082;-49
2023/01/13 19:14:33;;;;;;;20.50;11.00;;;;;;;6.77;96.31;101167.38;5087506;28;20028;-50
2023/01/13 19:17:01;;;;;;;21.08;11.32;;;;;;;6.69;96.78;101163.25;5091231;28;20166;-48
2023/01/13 19:19:26;;;;;;;23.70;11.50;;;;;;;6.66;97.60;101151.97;5090844;28;20032;-56
2023/01/13 19:21:52;;;;;;;23.42;12.13;;;;;;;6.62;98.51;101161.84;5090615;28;20469;-52
2023/01/13 19:24:17;;;;;;;20.33;11.98;;;;;;;6.63;98.50;101164.31;5089871;28;20039;-53
2023/01/13 19:26:42;;;;;;;19.45;10.82;;;;;;;6.74;97.47;101169.84;5087917;28;20041;-49
2023/01/13 19:29:08;;;;;;;22.08;11.40;;;;;;;6.72;97.84;101176.44;5074672;28;20048;-51
2023/01/13 19:31:33;;;;;;;22.40;11.18;;;;;;;6.70;98.22;101169.56;5071233;28;20029;-51
2023/01/13 19:33:58;;;;;;;20.73;12.48;;;;;;;6.59;99.00;101168.72;5073302;28;20031;-50
2023/01/13 19:36:25;;;;;;;22.83;12.50;;;;;;;6.65;98.20;101172.31;5071081;28;20025;-52
2023/01/13 19:38:51;;;;;;;23.73;12.32;;;;;;;6.55;99.56;101193.19;5071187;28;20036;-48
2023/01/13 19:46:45;;;;;;;20.90;12.10;;;;;;;6.43;100.00;101200.81;5072824;28;20121;-48
2023/01/13 19:49:11;;;;;;;24.05;13.60;;;;;;;6.47;100.00;101201.09;5070362;28;20529;-51
2023/01/13 19:51:37;;;;;;;23.50;12.10;;;;;;;6.49;100.00;101199.72;5077361;28;20115;-53
2023/01/13 19:54:02;;;;;;;22.73;11.73;;;;;;;6.46;100.00;101199.44;5071501;28;20474;-52
2023/01/13 19:56:29;;;;;;;21.38;11.68;;;;;;;6.50;100.00;101190.41;5070504;28;20036;-49
2023/01/13 19:58:54;;;;;;;27.40;12.15;;;;;;;6.46;100.00;101194.81;5070802;28;20070;-48
2023/01/13 20:01:23;;;;;;;21.58;11.63;;;;;;;6.50;100.00;101197.84;5070470;28;20082;-52
2023/01/13 20:03:49;;;;;;;23.05;11.80;;;;;;;6.48;100.00;101195.34;5065878;28;20396;-50
2023/01/13 20:06:14;;;;;;;22.67;12.07;;;;;;;6.41;100.00;101203.00;5074406;28;20027;-48
2023/01/13 20:08:44;;;;;;;22.63;11.10;;;;;;;6.37;100.00;101215.66;5090670;28;20028;-49
2023/01/13 20:11:23;;;;;;;24.52;12.55;;;;;;;6.39;100.00;101229.94;5091112;28;20027;-47
2023/01/13 20:13:50;;;;;;;23.65;11.55;;;;;;;6.41;100.00;101227.75;5090863;28;20039;-51
2023/01/13 20:16:16;;;;;;;24.42;11.63;;;;;;;6.46;100.00;101237.94;5090788;28;20428;-51
2023/01/13 20:18:42;;;;;;;21.33;11.25;;;;;;;6.36;100.00;101233.22;5088910;28;20074;-52
2023/01/13 20:21:07;;;;;;;26.73;12.35;;;;;;;6.44;100.00;101238.22;5090522;28;20035;-49
2023/01/13 20:23:32;;;;;;;23.15;11.70;;;;;;;6.50;100.00;101236.31;5090205;28;20035;-52
2023/01/13 20:25:59;;;;;;;22.00;12.35;;;;;;;6.50;100.00;101223.38;5089798;28;20024;-51
2023/01/13 20:28:25;;;;;;;24.13;12.32;;;;;;;6.62;100.00;101234.13;5090496;28;20038;-50
2023/01/13 20:30:51;;;;;;;22.65;12.43;;;;;;;6.60;100.00;101239.09;5090439;28;20024;-50
2023/01/13 20:33:16;;;;;;;25.55;11.63;;;;;;;6.61;100.00;101251.75;5090245;28;20074;-52
2023/01/13 20:35:44;;;;;;;24.17;13.15;;;;;;;6.64;100.00;101250.38;5090357;28;20032;-52
2023/01/13 20:38:09;;;;;;;20.33;11.40;;;;;;;6.77;100.00;101241.59;5090586;28;20443;-49
2023/01/13 20:40:35;;;;;;;23.80;11.80;;;;;;;6.67;100.00;101249.81;5090637;28;20391;-48
2023/01/13 20:43:00;;;;;;;26.55;12.30;;;;;;;6.60;100.00;101254.75;5090685;28;20471;-51
2023/01/13 20:45:25;;;;;;;24.88;12.18;;;;;;;6.68;100.00;101262.47;5090867;28;20035;-49
2023/01/13 20:47:52;;;;;;;20.95;12.02;;;;;;;6.71;100.00;101262.75;5088811;28;20032;-49
2023/01/13 20:50:17;;;;;;;21.92;11.82;;;;;;;6.81;100.00;101259.22;5090487;28;20051;-50
2023/01/13 20:52:43;;;;;;;23.77;12.20;;;;;;;6.89;100.00;101257.03;5089541;28;20475;-51
2023/01/13 20:55:09;;;;;;;21.98;12.32;;;;;;;6.79;100.00;101263.34;5089953;28;20485;-49
2023/01/13 20:57:34;;;;;;;21.85;12.27;;;;;;;6.83;100.00;101264.44;5090022;28;20491;-49
2023/01/13 21:00:01;;;;;;;24.40;12.23;;;;;;;6.85;100.00;101262.25;5083047;28;20466;-48
2023/01/13 21:02:26;;;;;;;22.27;12.80;;;;;;;6.85;100.00;101267.75;5089640;28;20043;-50
2023/01/13 21:04:51;;;;;;;24.42;11.90;;;;;;;6.92;100.00;101267.50;5089956;28;20024;-49
2023/01/13 21:07:17;;;;;;;21.92;11.85;;;;;;;6.89;100.00;101260.63;5089963;28;20439;-53
2023/01/13 21:09:42;;;;;;;21.95;11.65;;;;;;;6.92;100.00;101256.50;5089632;28;20036;-49
2023/01/13 21:20:24;;;;;;;23.88;11.43;;;;;;;6.87;100.00;101285.66;5089001;28;20527;-52
2023/01/13 21:22:50;;;;;;;21.25;11.50;;;;;;;6.85;100.00;101285.06;5089469;28;20550;-47
2023/01/13 21:25:16;;;;;;;23.58;11.80;;;;;;;6.92;99.42;101287.59;5089385;28;20031;-50
2023/01/13 21:27:42;;;;;;;23.67;11.90;;;;;;;6.89;99.77;101293.66;5089284;28;20047;-48
2023/01/13 21:30:12;;;;;;;23.45;12.02;;;;;;;6.96;99.34;101298.88;5089226;28;20024;-52
2023/01/13 21:32:37;;;;;;;21.13;12.07;;;;;;;6.99;98.73;101304.66;5089381;28;20407;-51
2023/01/13 21:35:02;;;;;;;24.70;11.73;;;;;;;7.02;98.31;101298.63;5088714;28;20456;-49
2023/01/13 21:37:28;;;;;;;23.17;11.55;;;;;;;7.05;97.99;101296.44;5087927;28;20139;-47
2023/01/13 21:39:53;;;;;;;23.00;12.20;;;;;;;7.06;97.81;101295.34;5088889;28;20032;-49
2023/01/13 21:47:47;;;;;;;25.70;12.18;;;;;;;7.11;96.82;101293.44;5088949;28;20074;-48
2023/01/13 21:50:18;;;;;;;21.13;12.05;;;;;;;7.03;97.55;101308.53;5086851;28;20454;-49
2023/01/13 21:52:44;;;;;;;19.90;11.15;;;;;;;7.05;97.08;101312.94;5081980;28;20463;-49
2023/01/13 21:55:22;;;;;;;21.25;11.70;;;;;;;7.02;97.34;101319.81;5084514;28;20040;-51
2023/01/13 21:57:50;;;;;;;25.55;12.73;;;;;;;7.02;97.15;101319.81;5091291;28;20026;-50
2023/01/13 22:00:18;;;;;;;24.95;12.40;;;;;;;6.99;97.85;101329.41;5090467;28;20035;-48
2023/01/13 22:02:44;;;;;;;24.58;11.73;;;;;;;7.01;97.38;101331.91;5090061;28;20030;-50
2023/01/13 22:05:11;;;;;;;22.70;11.02;;;;;;;7.03;97.14;101341.53;5090646;28;20113;-49
2023/01/13 22:07:38;;;;;;;26.67;11.88;;;;;;;6.89;97.49;101334.06;5090915;28;20364;-49
2023/01/13 22:10:06;;;;;;;24.40;11.23;;;;;;;6.90;98.00;101346.72;5091513;28;20130;-50
2023/01/13 22:12:31;;;;;;;21.92;11.00;;;;;;;6.81;98.71;101352.72;5091695;28;20028;-47
2023/01/13 22:14:57;;;;;;;25.10;11.90;;;;;;;6.89;97.40;101353.31;5091771;28;20077;-50
2023/01/13 22:17:24;;;;;;;21.05;11.60;;;;;;;6.80;97.93;101350.25;5091967;28;20032;-51
2023/01/13 22:19:52;;;;;;;25.05;11.80;;;;;;;6.79;97.98;101354.91;5091551;28;20100;-49
2023/01/13 22:22:20;;;;;;;25.80;11.57;;;;;;;6.72;98.63;101360.66;5089262;28;20475;-51
2023/01/13 22:24:48;;;;;;;24.90;11.57;;;;;;;6.76;97.88;101360.13;5091516;28;20479;-48
2023/01/13 22:27:17;;;;;;;22.17;11.43;;;;;;;6.62;98.83;101362.53;5090746;28;20024;-48
2023/01/13 22:29:44;;;;;;;26.92;12.02;;;;;;;6.64;98.64;101366.66;5090340;28;20028;-51
2023/01/13 22:32:09;;;;;;;22.27;11.18;;;;;;;6.53;99.04;101360.28;5089442;28;20384;-46
2023/01/13 22:34:35;;;;;;;22.08;11.80;;;;;;;6.49;99.12;101374.84;5089665;28;20032;-50
2023/01/13 22:37:01;;;;;;;22.67;11.50;;;;;;;6.46;99.63;101375.34;5088884;28;20035;-49
2023/01/13 22:39:27;;;;;;;26.15;12.18;;;;;;;6.38;99.91;101372.03;5088345;28;20036;-51
2023/01/13 22:41:52;;;;;;;22.92;11.98;;;;;;;6.36;100.00;101370.63;5089726;28;20475;-46
2023/01/13 22:44:19;;;;;;;26.58;12.35;;;;;;;6.43;99.39;101364.88;5089996;28;20116;-53
2023/01/13 22:46:45;;;;;;;25.70;12.27;;;;;;;6.36;100.00;101365.94;5088182;28;20027;-47
2023/01/13 22:49:11;;;;;;;25.30;11.90;;;;;;;6.29;100.00;101368.13;5089630;28;20086;-49
2023/01/13 22:51:37;;;;;;;24.05;11.77;;;;;;;6.27;100.00;101361.22;5083822;28;20403;-47
2023/01/13 22:54:02;;;;;;;22.08;11.68;;;;;;;6.26;100.00;101368.63;5089985;28;20080;-48
2023/01/13 22:56:28;;;;;;;28.00;13.18;;;;;;;6.30;100.00;101371.69;5090853;28;20115;-51
2023/01/13 22:58:56;;;;;;;29.40;13.10;;;;;;;6.26;100.00;101365.06;5090749;28;20364;-51
2023/01/13 23:01:23;;;;;;;24.45;12.63;;;;;;;6.21;100.00;101363.13;5090591;28;20528;-47
2023/01/13 23:03:49;;;;;;;25.58;12.60;;;;;;;6.22;100.00;101379.31;5089680;28;20037;-51
2023/01/13 23:06:17;;;;;;;21.80;11.50;;;;;;;6.26;100.00;101385.13;5090627;28;20036;-50
2023/01/13 23:08:43;;;;;;;25.45;12.82;;;;;;;6.17;100.00;101387.53;5090906;28;20031;-48
2023/01/13 23:11:11;;;;;;;21.02;11.60;;;;;;;6.14;100.00;101392.75;5090457;28;20036;-49
2023/01/13 23:13:38;;;;;;;21.02;11.68;;;;;;;6.20;100.00;101392.50;5089333;28;20471;-48
2023/01/13 23:16:22;;;;;;;24.80;12.73;;;;;;;6.22;100.00;101389.50;5090945;28;20027;-52